Thorold, Canada
Current Conditions -  °F | °C
As of 8:00 PM on Tuesday 25 Nov 2014 (Local Time) from CYSN Reporting Station
Overcast Overcast  
Wind Chill: 28°   Ceiling: 5100
Heat Index: 36°   Visibility: 15mi
Dew Point: 25°   Wind: 12mph
Humidity: 65%   Direction: 230°SW
Pressure: 30.14"   Gusts: NA
Location:  43.12°N, 79.2°W
Report Text: CYSN 260100Z 23010KT 15SM OVC051 02/M04 A3014 RMK SC8 SLP211
Loading
Personal Weather Stations






























Interactive Weather Map New forecast layout! Learn more

10-Day Weather Forecast

Advertisements
Track Severe Weather on mobile